sensor_id;sensor_type;location;lat;lon;timestamp;P1;durP1;ratioP1;P2;durP2;ratioP2
57047;SDS011;42934;54.294;18.598;2023-09-19T00:01:54;23.02;;;20.08;;
57047;SDS011;42934;54.294;18.598;2023-09-19T00:04:24;21.30;;;19.10;;
57047;SDS011;42934;54.294;18.598;2023-09-19T00:06:56;25.00;;;20.17;;
57047;SDS011;42934;54.294;18.598;2023-09-19T00:09:25;22.70;;;20.30;;
57047;SDS011;42934;54.294;18.598;2023-09-19T00:11:56;24.98;;;20.27;;
57047;SDS011;42934;54.294;18.598;2023-09-19T00:14:26;24.70;;;20.10;;
57047;SDS011;42934;54.294;18.598;2023-09-19T00:16:55;21.75;;;19.40;;
57047;SDS011;42934;54.294;18.598;2023-09-19T00:21:55;23.20;;;20.73;;
57047;SDS011;42934;54.294;18.598;2023-09-19T00:24:24;22.42;;;20.02;;
57047;SDS011;42934;54.294;18.598;2023-09-19T00:26:56;25.67;;;20.35;;
57047;SDS011;42934;54.294;18.598;2023-09-19T00:29:26;23.15;;;19.80;;
57047;SDS011;42934;54.294;18.598;2023-09-19T00:31:58;24.15;;;20.23;;
57047;SDS011;42934;54.294;18.598;2023-09-19T00:34:30;24.15;;;20.02;;
57047;SDS011;42934;54.294;18.598;2023-09-19T00:37:01;23.65;;;20.52;;
57047;SDS011;42934;54.294;18.598;2023-09-19T00:39:31;22.60;;;19.73;;
57047;SDS011;42934;54.294;18.598;2023-09-19T00:42:01;23.85;;;20.40;;
57047;SDS011;42934;54.294;18.598;2023-09-19T00:44:32;22.00;;;19.70;;
57047;SDS011;42934;54.294;18.598;2023-09-19T00:47:01;23.30;;;19.67;;
57047;SDS011;42934;54.294;18.598;2023-09-19T00:49:32;26.35;;;21.75;;
57047;SDS011;42934;54.294;18.598;2023-09-19T00:52:03;24.77;;;21.13;;
57047;SDS011;42934;54.294;18.598;2023-09-19T00:54:33;25.02;;;21.30;;
57047;SDS011;42934;54.294;18.598;2023-09-19T00:59:34;23.75;;;20.75;;
57047;SDS011;42934;54.294;18.598;2023-09-19T01:02:04;23.33;;;20.83;;
57047;SDS011;42934;54.294;18.598;2023-09-19T01:04:34;23.20;;;20.60;;
57047;SDS011;42934;54.294;18.598;2023-09-19T01:07:04;26.92;;;21.05;;
57047;SDS011;42934;54.294;18.598;2023-09-19T01:09:35;24.65;;;21.30;;
57047;SDS011;42934;54.294;18.598;2023-09-19T01:12:07;29.75;;;22.58;;
57047;SDS011;42934;54.294;18.598;2023-09-19T01:14:38;24.65;;;20.80;;
57047;SDS011;42934;54.294;18.598;2023-09-19T01:17:16;25.38;;;22.23;;
57047;SDS011;42934;54.294;18.598;2023-09-19T01:20:04;28.15;;;21.45;;
57047;SDS011;42934;54.294;18.598;2023-09-19T01:22:56;24.50;;;21.75;;
57047;SDS011;42934;54.294;18.598;2023-09-19T01:25:54;27.00;;;21.85;;
57047;SDS011;42934;54.294;18.598;2023-09-19T01:28:45;26.55;;;21.63;;
57047;SDS011;42934;54.294;18.598;2023-09-19T01:31:23;25.45;;;21.60;;
57047;SDS011;42934;54.294;18.598;2023-09-19T01:33:57;26.27;;;21.88;;
57047;SDS011;42934;54.294;18.598;2023-09-19T01:36:28;25.90;;;22.45;;
57047;SDS011;42934;54.294;18.598;2023-09-19T01:39:02;25.08;;;22.45;;
57047;SDS011;42934;54.294;18.598;2023-09-19T01:41:54;26.15;;;21.65;;
57047;SDS011;42934;54.294;18.598;2023-09-19T01:44:35;31.35;;;21.80;;
57047;SDS011;42934;54.294;18.598;2023-09-19T01:47:12;28.77;;;21.55;;
57047;SDS011;42934;54.294;18.598;2023-09-19T01:49:50;26.92;;;22.17;;
57047;SDS011;42934;54.294;18.598;2023-09-19T01:52:30;25.10;;;22.00;;
57047;SDS011;42934;54.294;18.598;2023-09-19T01:55:05;25.60;;;22.75;;
57047;SDS011;42934;54.294;18.598;2023-09-19T01:57:40;28.30;;;22.67;;
57047;SDS011;42934;54.294;18.598;2023-09-19T02:00:16;26.33;;;21.85;;
57047;SDS011;42934;54.294;18.598;2023-09-19T02:02:49;24.65;;;21.67;;
57047;SDS011;42934;54.294;18.598;2023-09-19T02:05:23;26.77;;;20.85;;
57047;SDS011;42934;54.294;18.598;2023-09-19T02:07:54;23.50;;;20.58;;
57047;SDS011;42934;54.294;18.598;2023-09-19T02:10:23;22.52;;;20.08;;
57047;SDS011;42934;54.294;18.598;2023-09-19T02:12:52;23.05;;;19.38;;
57047;SDS011;42934;54.294;18.598;2023-09-19T02:15:22;20.33;;;17.55;;
57047;SDS011;42934;54.294;18.598;2023-09-19T02:17:53;17.92;;;14.75;;
57047;SDS011;42934;54.294;18.598;2023-09-19T02:20:24;15.57;;;13.75;;
57047;SDS011;42934;54.294;18.598;2023-09-19T02:22:53;16.27;;;14.10;;
57047;SDS011;42934;54.294;18.598;2023-09-19T02:25:22;15.50;;;12.43;;
57047;SDS011;42934;54.294;18.598;2023-09-19T02:27:53;19.08;;;11.30;;
57047;SDS011;42934;54.294;18.598;2023-09-19T02:30:25;14.60;;;11.60;;
57047;SDS011;42934;54.294;18.598;2023-09-19T02:32:57;13.80;;;10.50;;
57047;SDS011;42934;54.294;18.598;2023-09-19T02:35:28;14.57;;;10.80;;
57047;SDS011;42934;54.294;18.598;2023-09-19T02:38:01;11.82;;;10.57;;
57047;SDS011;42934;54.294;18.598;2023-09-19T02:40:33;13.98;;;10.75;;
57047;SDS011;42934;54.294;18.598;2023-09-19T02:43:03;12.10;;;10.68;;
57047;SDS011;42934;54.294;18.598;2023-09-19T02:45:34;14.48;;;10.20;;
57047;SDS011;42934;54.294;18.598;2023-09-19T02:48:05;12.32;;;9.02;;
57047;SDS011;42934;54.294;18.598;2023-09-19T02:50:34;11.95;;;9.20;;
57047;SDS011;42934;54.294;18.598;2023-09-19T02:53:03;9.63;;;7.75;;
57047;SDS011;42934;54.294;18.598;2023-09-19T02:55:33;10.27;;;7.40;;
57047;SDS011;42934;54.294;18.598;2023-09-19T02:58:05;8.43;;;6.65;;
57047;SDS011;42934;54.294;18.598;2023-09-19T03:00:38;9.93;;;6.60;;
57047;SDS011;42934;54.294;18.598;2023-09-19T03:03:10;10.32;;;6.35;;
57047;SDS011;42934;54.294;18.598;2023-09-19T03:05:40;11.52;;;6.45;;
57047;SDS011;42934;54.294;18.598;2023-09-19T03:08:16;8.85;;;6.13;;
57047;SDS011;42934;54.294;18.598;2023-09-19T03:10:47;9.18;;;5.88;;
57047;SDS011;42934;54.294;18.598;2023-09-19T03:13:17;9.93;;;6.50;;
57047;SDS011;42934;54.294;18.598;2023-09-19T03:18:24;8.65;;;6.43;;
57047;SDS011;42934;54.294;18.598;2023-09-19T03:20:54;8.18;;;5.85;;
57047;SDS011;42934;54.294;18.598;2023-09-19T03:23:24;8.80;;;5.10;;
57047;SDS011;42934;54.294;18.598;2023-09-19T03:25:53;7.15;;;5.28;;
57047;SDS011;42934;54.294;18.598;2023-09-19T03:28:23;9.13;;;5.25;;
57047;SDS011;42934;54.294;18.598;2023-09-19T03:30:59;8.43;;;5.38;;
57047;SDS011;42934;54.294;18.598;2023-09-19T03:33:32;8.35;;;5.50;;
57047;SDS011;42934;54.294;18.598;2023-09-19T03:36:02;8.98;;;5.40;;
57047;SDS011;42934;54.294;18.598;2023-09-19T03:38:33;9.77;;;5.80;;
57047;SDS011;42934;54.294;18.598;2023-09-19T03:41:02;8.35;;;5.40;;
57047;SDS011;42934;54.294;18.598;2023-09-19T03:43:34;8.00;;;5.15;;
57047;SDS011;42934;54.294;18.598;2023-09-19T03:46:04;10.13;;;5.32;;
57047;SDS011;42934;54.294;18.598;2023-09-19T03:48:36;8.32;;;4.85;;
57047;SDS011;42934;54.294;18.598;2023-09-19T03:51:06;8.93;;;4.70;;
57047;SDS011;42934;54.294;18.598;2023-09-19T03:53:35;9.77;;;5.10;;
57047;SDS011;42934;54.294;18.598;2023-09-19T03:56:05;8.13;;;4.70;;
57047;SDS011;42934;54.294;18.598;2023-09-19T03:58:35;9.35;;;5.40;;
57047;SDS011;42934;54.294;18.598;2023-09-19T04:01:06;10.52;;;5.00;;
57047;SDS011;42934;54.294;18.598;2023-09-19T04:03:37;8.25;;;4.90;;
57047;SDS011;42934;54.294;18.598;2023-09-19T04:06:14;7.53;;;5.28;;
57047;SDS011;42934;54.294;18.598;2023-09-19T04:08:44;7.40;;;5.30;;
57047;SDS011;42934;54.294;18.598;2023-09-19T04:11:14;8.52;;;5.60;;
57047;SDS011;42934;54.294;18.598;2023-09-19T04:13:45;13.93;;;5.53;;
57047;SDS011;42934;54.294;18.598;2023-09-19T04:16:15;10.18;;;6.00;;
57047;SDS011;42934;54.294;18.598;2023-09-19T04:18:46;9.45;;;5.88;;
57047;SDS011;42934;54.294;18.598;2023-09-19T04:21:15;12.65;;;5.68;;
57047;SDS011;42934;54.294;18.598;2023-09-19T04:23:45;10.50;;;5.40;;
57047;SDS011;42934;54.294;18.598;2023-09-19T04:26:14;10.25;;;5.85;;
57047;SDS011;42934;54.294;18.598;2023-09-19T04:28:44;12.55;;;6.35;;
57047;SDS011;42934;54.294;18.598;2023-09-19T04:31:13;10.13;;;7.27;;
57047;SDS011;42934;54.294;18.598;2023-09-19T04:33:43;10.15;;;7.35;;
57047;SDS011;42934;54.294;18.598;2023-09-19T04:36:14;14.73;;;7.60;;
57047;SDS011;42934;54.294;18.598;2023-09-19T04:39:02;12.88;;;7.97;;
57047;SDS011;42934;54.294;18.598;2023-09-19T04:41:34;14.13;;;7.43;;
57047;SDS011;42934;54.294;18.598;2023-09-19T04:44:05;10.48;;;6.50;;
57047;SDS011;42934;54.294;18.598;2023-09-19T04:46:35;10.88;;;6.30;;
57047;SDS011;42934;54.294;18.598;2023-09-19T04:49:06;11.35;;;6.97;;
57047;SDS011;42934;54.294;18.598;2023-09-19T04:51:35;11.23;;;7.60;;
57047;SDS011;42934;54.294;18.598;2023-09-19T04:54:04;11.00;;;6.75;;
57047;SDS011;42934;54.294;18.598;2023-09-19T04:59:07;12.20;;;7.35;;
57047;SDS011;42934;54.294;18.598;2023-09-19T05:01:37;14.27;;;7.13;;
57047;SDS011;42934;54.294;18.598;2023-09-19T05:04:09;11.32;;;7.35;;
57047;SDS011;42934;54.294;18.598;2023-09-19T05:06:38;10.75;;;6.78;;
57047;SDS011;42934;54.294;18.598;2023-09-19T05:09:10;11.32;;;7.55;;
57047;SDS011;42934;54.294;18.598;2023-09-19T05:11:40;12.85;;;7.43;;
57047;SDS011;42934;54.294;18.598;2023-09-19T05:14:09;10.75;;;7.00;;
57047;SDS011;42934;54.294;18.598;2023-09-19T05:16:38;9.82;;;6.72;;
57047;SDS011;42934;54.294;18.598;2023-09-19T05:19:09;10.93;;;6.78;;
57047;SDS011;42934;54.294;18.598;2023-09-19T05:21:38;9.57;;;6.65;;
57047;SDS011;42934;54.294;18.598;2023-09-19T05:24:08;9.55;;;6.60;;
57047;SDS011;42934;54.294;18.598;2023-09-19T05:26:37;8.55;;;6.22;;
57047;SDS011;42934;54.294;18.598;2023-09-19T05:29:07;9.18;;;6.80;;
57047;SDS011;42934;54.294;18.598;2023-09-19T05:31:36;12.30;;;6.60;;
57047;SDS011;42934;54.294;18.598;2023-09-19T05:34:09;9.88;;;6.35;;
57047;SDS011;42934;54.294;18.598;2023-09-19T05:36:38;7.45;;;5.95;;
57047;SDS011;42934;54.294;18.598;2023-09-19T05:39:08;10.15;;;6.20;;
57047;SDS011;42934;54.294;18.598;2023-09-19T05:41:37;10.87;;;6.60;;
57047;SDS011;42934;54.294;18.598;2023-09-19T05:44:07;9.00;;;6.43;;
57047;SDS011;42934;54.294;18.598;2023-09-19T05:46:36;9.55;;;6.90;;
57047;SDS011;42934;54.294;18.598;2023-09-19T05:49:06;8.18;;;6.10;;
57047;SDS011;42934;54.294;18.598;2023-09-19T05:51:36;11.70;;;6.67;;
57047;SDS011;42934;54.294;18.598;2023-09-19T05:54:06;9.57;;;6.50;;
57047;SDS011;42934;54.294;18.598;2023-09-19T05:56:35;12.13;;;6.50;;
57047;SDS011;42934;54.294;18.598;2023-09-19T05:59:04;10.77;;;6.13;;
57047;SDS011;42934;54.294;18.598;2023-09-19T06:01:33;10.93;;;6.40;;
57047;SDS011;42934;54.294;18.598;2023-09-19T06:04:02;10.52;;;6.70;;
57047;SDS011;42934;54.294;18.598;2023-09-19T06:06:32;10.98;;;6.38;;
57047;SDS011;42934;54.294;18.598;2023-09-19T06:09:07;8.95;;;6.47;;
57047;SDS011;42934;54.294;18.598;2023-09-19T06:11:36;8.63;;;6.80;;
57047;SDS011;42934;54.294;18.598;2023-09-19T06:14:06;10.27;;;6.78;;
57047;SDS011;42934;54.294;18.598;2023-09-19T06:16:37;10.52;;;6.53;;
57047;SDS011;42934;54.294;18.598;2023-09-19T06:19:08;8.43;;;6.03;;
57047;SDS011;42934;54.294;18.598;2023-09-19T06:21:37;9.10;;;6.50;;
57047;SDS011;42934;54.294;18.598;2023-09-19T06:24:08;7.70;;;5.70;;
57047;SDS011;42934;54.294;18.598;2023-09-19T06:26:38;7.60;;;5.45;;
57047;SDS011;42934;54.294;18.598;2023-09-19T06:29:07;8.27;;;5.45;;
57047;SDS011;42934;54.294;18.598;2023-09-19T06:31:38;8.13;;;5.32;;
57047;SDS011;42934;54.294;18.598;2023-09-19T06:34:09;8.18;;;5.40;;
57047;SDS011;42934;54.294;18.598;2023-09-19T06:36:38;7.30;;;5.27;;
57047;SDS011;42934;54.294;18.598;2023-09-19T06:39:09;8.65;;;5.30;;
57047;SDS011;42934;54.294;18.598;2023-09-19T06:41:38;8.65;;;5.55;;
57047;SDS011;42934;54.294;18.598;2023-09-19T06:44:09;10.57;;;5.45;;
57047;SDS011;42934;54.294;18.598;2023-09-19T06:46:38;7.57;;;5.10;;
57047;SDS011;42934;54.294;18.598;2023-09-19T06:49:11;10.07;;;5.30;;
57047;SDS011;42934;54.294;18.598;2023-09-19T06:51:42;10.43;;;5.90;;
57047;SDS011;42934;54.294;18.598;2023-09-19T06:54:12;8.20;;;5.03;;
57047;SDS011;42934;54.294;18.598;2023-09-19T06:56:41;7.20;;;4.80;;
57047;SDS011;42934;54.294;18.598;2023-09-19T06:59:11;11.35;;;5.70;;
57047;SDS011;42934;54.294;18.598;2023-09-19T07:01:41;8.70;;;5.55;;
57047;SDS011;42934;54.294;18.598;2023-09-19T07:04:12;12.75;;;5.50;;
57047;SDS011;42934;54.294;18.598;2023-09-19T07:06:41;8.45;;;4.93;;
57047;SDS011;42934;54.294;18.598;2023-09-19T07:09:14;6.70;;;4.90;;
57047;SDS011;42934;54.294;18.598;2023-09-19T07:11:43;6.93;;;4.40;;
57047;SDS011;42934;54.294;18.598;2023-09-19T07:14:12;8.18;;;4.70;;
57047;SDS011;42934;54.294;18.598;2023-09-19T07:16:42;9.03;;;4.73;;
57047;SDS011;42934;54.294;18.598;2023-09-19T07:19:12;8.68;;;4.43;;
57047;SDS011;42934;54.294;18.598;2023-09-19T07:21:41;8.65;;;4.55;;
57047;SDS011;42934;54.294;18.598;2023-09-19T07:24:11;7.03;;;4.57;;
57047;SDS011;42934;54.294;18.598;2023-09-19T07:26:42;5.82;;;4.50;;
57047;SDS011;42934;54.294;18.598;2023-09-19T07:29:13;9.25;;;4.60;;
57047;SDS011;42934;54.294;18.598;2023-09-19T07:31:42;10.13;;;5.20;;
57047;SDS011;42934;54.294;18.598;2023-09-19T07:34:12;6.40;;;4.90;;
57047;SDS011;42934;54.294;18.598;2023-09-19T07:36:42;7.53;;;5.00;;
57047;SDS011;42934;54.294;18.598;2023-09-19T07:39:11;12.18;;;4.82;;
57047;SDS011;42934;54.294;18.598;2023-09-19T07:41:49;7.35;;;5.03;;
57047;SDS011;42934;54.294;18.598;2023-09-19T07:44:18;11.18;;;5.03;;
57047;SDS011;42934;54.294;18.598;2023-09-19T07:46:47;10.73;;;5.00;;
57047;SDS011;42934;54.294;18.598;2023-09-19T07:49:18;10.27;;;4.93;;
57047;SDS011;42934;54.294;18.598;2023-09-19T07:51:47;5.10;;;4.63;;
57047;SDS011;42934;54.294;18.598;2023-09-19T07:54:18;6.03;;;4.68;;
57047;SDS011;42934;54.294;18.598;2023-09-19T07:56:48;8.45;;;4.82;;
57047;SDS011;42934;54.294;18.598;2023-09-19T07:59:17;7.47;;;4.70;;
57047;SDS011;42934;54.294;18.598;2023-09-19T08:01:46;8.98;;;5.53;;
57047;SDS011;42934;54.294;18.598;2023-09-19T08:04:16;13.50;;;5.07;;
57047;SDS011;42934;54.294;18.598;2023-09-19T08:06:46;10.25;;;4.60;;
57047;SDS011;42934;54.294;18.598;2023-09-19T08:09:20;7.72;;;4.68;;
57047;SDS011;42934;54.294;18.598;2023-09-19T08:11:51;7.80;;;4.82;;
57047;SDS011;42934;54.294;18.598;2023-09-19T08:14:21;6.75;;;4.50;;
57047;SDS011;42934;54.294;18.598;2023-09-19T08:16:51;7.22;;;4.93;;
57047;SDS011;42934;54.294;18.598;2023-09-19T08:19:26;9.57;;;4.70;;
57047;SDS011;42934;54.294;18.598;2023-09-19T08:21:56;9.57;;;4.72;;
57047;SDS011;42934;54.294;18.598;2023-09-19T08:24:28;8.73;;;4.60;;
57047;SDS011;42934;54.294;18.598;2023-09-19T08:26:57;4.85;;;4.07;;
57047;SDS011;42934;54.294;18.598;2023-09-19T08:29:27;5.78;;;4.53;;
57047;SDS011;42934;54.294;18.598;2023-09-19T08:31:56;7.05;;;4.88;;
57047;SDS011;42934;54.294;18.598;2023-09-19T08:36:57;8.95;;;4.20;;
57047;SDS011;42934;54.294;18.598;2023-09-19T08:39:28;4.60;;;3.90;;
57047;SDS011;42934;54.294;18.598;2023-09-19T08:42:00;4.97;;;4.00;;
57047;SDS011;42934;54.294;18.598;2023-09-19T08:44:31;5.65;;;3.53;;
57047;SDS011;42934;54.294;18.598;2023-09-19T08:47:09;5.40;;;3.55;;
57047;SDS011;42934;54.294;18.598;2023-09-19T08:49:43;6.25;;;3.42;;
57047;SDS011;42934;54.294;18.598;2023-09-19T08:52:28;6.03;;;3.20;;
57047;SDS011;42934;54.294;18.598;2023-09-19T08:55:06;5.53;;;3.38;;
57047;SDS011;42934;54.294;18.598;2023-09-19T08:57:39;4.88;;;3.20;;
57047;SDS011;42934;54.294;18.598;2023-09-19T09:00:12;5.13;;;3.03;;
57047;SDS011;42934;54.294;18.598;2023-09-19T09:02:44;5.57;;;3.17;;
57047;SDS011;42934;54.294;18.598;2023-09-19T09:05:15;5.40;;;2.80;;
57047;SDS011;42934;54.294;18.598;2023-09-19T09:07:50;4.88;;;2.70;;
57047;SDS011;42934;54.294;18.598;2023-09-19T09:10:24;5.85;;;2.65;;
57047;SDS011;42934;54.294;18.598;2023-09-19T09:12:54;4.25;;;2.70;;
57047;SDS011;42934;54.294;18.598;2023-09-19T09:15:24;4.38;;;2.40;;
57047;SDS011;42934;54.294;18.598;2023-09-19T09:17:56;10.45;;;2.63;;
57047;SDS011;42934;54.294;18.598;2023-09-19T09:20:26;5.47;;;2.70;;
57047;SDS011;42934;54.294;18.598;2023-09-19T09:22:56;6.18;;;2.67;;
57047;SDS011;42934;54.294;18.598;2023-09-19T09:28:19;5.03;;;2.33;;
57047;SDS011;42934;54.294;18.598;2023-09-19T09:30:49;7.63;;;2.60;;
57047;SDS011;42934;54.294;18.598;2023-09-19T09:33:18;5.13;;;2.22;;
57047;SDS011;42934;54.294;18.598;2023-09-19T09:35:49;3.10;;;2.08;;
57047;SDS011;42934;54.294;18.598;2023-09-19T09:38:20;3.70;;;2.15;;
57047;SDS011;42934;54.294;18.598;2023-09-19T09:40:54;3.65;;;2.03;;
57047;SDS011;42934;54.294;18.598;2023-09-19T09:43:29;2.38;;;2.17;;
57047;SDS011;42934;54.294;18.598;2023-09-19T09:46:07;3.75;;;2.05;;
57047;SDS011;42934;54.294;18.598;2023-09-19T09:49:00;2.80;;;1.80;;
57047;SDS011;42934;54.294;18.598;2023-09-19T09:51:59;5.80;;;2.10;;
57047;SDS011;42934;54.294;18.598;2023-09-19T09:54:36;3.40;;;2.10;;
57047;SDS011;42934;54.294;18.598;2023-09-19T09:57:10;3.78;;;2.10;;
57047;SDS011;42934;54.294;18.598;2023-09-19T09:59:47;3.53;;;2.00;;
57047;SDS011;42934;54.294;18.598;2023-09-19T10:02:21;2.60;;;1.98;;
57047;SDS011;42934;54.294;18.598;2023-09-19T10:04:56;2.75;;;1.85;;
57047;SDS011;42934;54.294;18.598;2023-09-19T10:07:41;4.50;;;1.90;;
57047;SDS011;42934;54.294;18.598;2023-09-19T10:10:29;3.15;;;1.70;;
57047;SDS011;42934;54.294;18.598;2023-09-19T10:13:13;4.13;;;2.08;;
57047;SDS011;42934;54.294;18.598;2023-09-19T10:15:47;3.50;;;1.70;;
57047;SDS011;42934;54.294;18.598;2023-09-19T10:18:20;2.90;;;2.10;;
57047;SDS011;42934;54.294;18.598;2023-09-19T10:20:51;4.65;;;2.10;;
57047;SDS011;42934;54.294;18.598;2023-09-19T10:23:20;3.60;;;1.98;;
57047;SDS011;42934;54.294;18.598;2023-09-19T10:25:51;7.32;;;2.00;;
57047;SDS011;42934;54.294;18.598;2023-09-19T10:28:23;5.75;;;2.10;;
57047;SDS011;42934;54.294;18.598;2023-09-19T10:30:58;4.10;;;1.90;;
57047;SDS011;42934;54.294;18.598;2023-09-19T10:33:32;4.07;;;2.00;;
57047;SDS011;42934;54.294;18.598;2023-09-19T10:36:05;6.97;;;2.00;;
57047;SDS011;42934;54.294;18.598;2023-09-19T10:38:36;2.75;;;1.80;;
57047;SDS011;42934;54.294;18.598;2023-09-19T10:41:07;4.95;;;2.15;;
57047;SDS011;42934;54.294;18.598;2023-09-19T10:43:40;6.32;;;2.67;;
57047;SDS011;42934;54.294;18.598;2023-09-19T10:46:11;3.85;;;2.13;;
57047;SDS011;42934;54.294;18.598;2023-09-19T10:48:41;3.05;;;1.75;;
57047;SDS011;42934;54.294;18.598;2023-09-19T10:51:16;6.97;;;2.00;;
57047;SDS011;42934;54.294;18.598;2023-09-19T10:53:51;4.97;;;1.92;;
57047;SDS011;42934;54.294;18.598;2023-09-19T10:56:23;6.00;;;1.70;;
57047;SDS011;42934;54.294;18.598;2023-09-19T10:59:06;5.03;;;1.52;;
57047;SDS011;42934;54.294;18.598;2023-09-19T11:01:41;5.15;;;1.60;;
57047;SDS011;42934;54.294;18.598;2023-09-19T11:04:21;2.60;;;1.60;;
57047;SDS011;42934;54.294;18.598;2023-09-19T11:07:02;2.53;;;1.65;;
57047;SDS011;42934;54.294;18.598;2023-09-19T11:09:45;8.35;;;1.90;;
57047;SDS011;42934;54.294;18.598;2023-09-19T11:18:52;3.58;;;1.73;;
57047;SDS011;42934;54.294;18.598;2023-09-19T11:21:39;2.88;;;1.80;;
57047;SDS011;42934;54.294;18.598;2023-09-19T11:24:28;3.25;;;1.73;;
57047;SDS011;42934;54.294;18.598;2023-09-19T11:27:10;3.00;;;1.70;;
57047;SDS011;42934;54.294;18.598;2023-09-19T11:29:41;5.53;;;1.70;;
57047;SDS011;42934;54.294;18.598;2023-09-19T11:32:10;6.65;;;1.83;;
57047;SDS011;42934;54.294;18.598;2023-09-19T11:34:43;5.13;;;1.70;;
57047;SDS011;42934;54.294;18.598;2023-09-19T11:40:29;4.07;;;1.80;;
57047;SDS011;42934;54.294;18.598;2023-09-19T11:42:59;8.38;;;1.92;;
57047;SDS011;42934;54.294;18.598;2023-09-19T11:46:08;8.02;;;1.73;;
57047;SDS011;42934;54.294;18.598;2023-09-19T11:48:38;3.63;;;1.85;;
57047;SDS011;42934;54.294;18.598;2023-09-19T11:51:15;9.32;;;1.77;;
57047;SDS011;42934;54.294;18.598;2023-09-19T11:53:51;3.35;;;1.50;;
57047;SDS011;42934;54.294;18.598;2023-09-19T11:56:21;3.85;;;1.70;;
57047;SDS011;42934;54.294;18.598;2023-09-19T11:58:53;7.03;;;1.80;;
57047;SDS011;42934;54.294;18.598;2023-09-19T12:01:25;4.38;;;1.65;;
57047;SDS011;42934;54.294;18.598;2023-09-19T12:03:59;8.93;;;1.90;;
57047;SDS011;42934;54.294;18.598;2023-09-19T12:06:33;4.70;;;1.63;;
57047;SDS011;42934;54.294;18.598;2023-09-19T12:09:05;6.95;;;1.77;;
57047;SDS011;42934;54.294;18.598;2023-09-19T12:11:43;4.13;;;1.45;;
57047;SDS011;42934;54.294;18.598;2023-09-19T12:14:21;4.47;;;1.50;;
57047;SDS011;42934;54.294;18.598;2023-09-19T12:19:23;7.15;;;1.33;;
57047;SDS011;42934;54.294;18.598;2023-09-19T12:21:59;3.57;;;1.50;;
57047;SDS011;42934;54.294;18.598;2023-09-19T12:24:32;3.97;;;1.50;;
57047;SDS011;42934;54.294;18.598;2023-09-19T12:27:05;3.58;;;1.63;;
57047;SDS011;42934;54.294;18.598;2023-09-19T12:29:43;4.93;;;1.50;;
57047;SDS011;42934;54.294;18.598;2023-09-19T12:32:12;7.75;;;1.70;;
57047;SDS011;42934;54.294;18.598;2023-09-19T12:34:50;6.45;;;1.50;;
57047;SDS011;42934;54.294;18.598;2023-09-19T12:37:23;7.95;;;1.80;;
57047;SDS011;42934;54.294;18.598;2023-09-19T12:40:04;6.47;;;1.88;;
57047;SDS011;42934;54.294;18.598;2023-09-19T12:42:44;12.57;;;1.92;;
57047;SDS011;42934;54.294;18.598;2023-09-19T12:45:15;3.35;;;1.50;;
57047;SDS011;42934;54.294;18.598;2023-09-19T12:50:58;3.00;;;1.70;;
57047;SDS011;42934;54.294;18.598;2023-09-19T12:53:34;4.75;;;1.60;;
57047;SDS011;42934;54.294;18.598;2023-09-19T12:56:08;4.57;;;1.40;;
57047;SDS011;42934;54.294;18.598;2023-09-19T12:58:50;17.02;;;1.92;;
57047;SDS011;42934;54.294;18.598;2023-09-19T13:01:22;4.47;;;1.98;;
57047;SDS011;42934;54.294;18.598;2023-09-19T13:04:11;21.38;;;2.08;;
57047;SDS011;42934;54.294;18.598;2023-09-19T13:06:46;5.70;;;1.50;;
57047;SDS011;42934;54.294;18.598;2023-09-19T13:09:18;7.30;;;1.45;;
57047;SDS011;42934;54.294;18.598;2023-09-19T13:11:48;8.60;;;2.13;;
57047;SDS011;42934;54.294;18.598;2023-09-19T13:14:18;7.22;;;1.90;;
57047;SDS011;42934;54.294;18.598;2023-09-19T13:16:57;3.92;;;1.50;;
57047;SDS011;42934;54.294;18.598;2023-09-19T13:19:34;2.90;;;1.40;;
57047;SDS011;42934;54.294;18.598;2023-09-19T13:25:08;5.80;;;1.88;;
57047;SDS011;42934;54.294;18.598;2023-09-19T13:27:41;5.07;;;1.45;;
57047;SDS011;42934;54.294;18.598;2023-09-19T13:30:12;5.22;;;1.70;;
57047;SDS011;42934;54.294;18.598;2023-09-19T13:32:42;8.27;;;1.70;;
57047;SDS011;42934;54.294;18.598;2023-09-19T13:37:42;9.18;;;1.77;;
57047;SDS011;42934;54.294;18.598;2023-09-19T13:40:15;12.10;;;2.03;;
57047;SDS011;42934;54.294;18.598;2023-09-19T13:42:45;13.05;;;2.00;;
57047;SDS011;42934;54.294;18.598;2023-09-19T13:45:14;13.10;;;2.30;;
57047;SDS011;42934;54.294;18.598;2023-09-19T13:47:45;9.10;;;1.75;;
57047;SDS011;42934;54.294;18.598;2023-09-19T13:50:14;7.20;;;1.70;;
57047;SDS011;42934;54.294;18.598;2023-09-19T13:52:44;9.60;;;2.00;;
57047;SDS011;42934;54.294;18.598;2023-09-19T13:55:15;6.95;;;1.70;;
57047;SDS011;42934;54.294;18.598;2023-09-19T13:57:47;6.15;;;1.70;;
57047;SDS011;42934;54.294;18.598;2023-09-19T14:00:16;6.13;;;1.60;;
57047;SDS011;42934;54.294;18.598;2023-09-19T14:02:46;5.15;;;1.60;;
57047;SDS011;42934;54.294;18.598;2023-09-19T14:05:16;4.35;;;1.73;;
57047;SDS011;42934;54.294;18.598;2023-09-19T14:07:46;8.18;;;1.90;;
57047;SDS011;42934;54.294;18.598;2023-09-19T14:10:17;5.93;;;1.80;;
57047;SDS011;42934;54.294;18.598;2023-09-19T14:12:46;6.03;;;1.70;;
57047;SDS011;42934;54.294;18.598;2023-09-19T14:15:15;7.03;;;1.75;;
57047;SDS011;42934;54.294;18.598;2023-09-19T14:17:45;5.63;;;1.73;;
57047;SDS011;42934;54.294;18.598;2023-09-19T14:20:14;5.55;;;1.90;;
57047;SDS011;42934;54.294;18.598;2023-09-19T14:22:43;9.82;;;2.45;;
57047;SDS011;42934;54.294;18.598;2023-09-19T14:25:12;5.47;;;1.83;;
57047;SDS011;42934;54.294;18.598;2023-09-19T14:27:44;8.65;;;1.95;;
57047;SDS011;42934;54.294;18.598;2023-09-19T14:30:14;8.25;;;2.00;;
57047;SDS011;42934;54.294;18.598;2023-09-19T14:32:43;8.65;;;1.88;;
57047;SDS011;42934;54.294;18.598;2023-09-19T14:35:12;5.40;;;1.93;;
57047;SDS011;42934;54.294;18.598;2023-09-19T14:37:42;3.20;;;1.70;;
57047;SDS011;42934;54.294;18.598;2023-09-19T14:40:12;3.25;;;1.73;;
57047;SDS011;42934;54.294;18.598;2023-09-19T14:42:45;5.88;;;1.77;;
57047;SDS011;42934;54.294;18.598;2023-09-19T14:45:18;3.60;;;1.80;;
57047;SDS011;42934;54.294;18.598;2023-09-19T14:47:50;5.85;;;1.75;;
57047;SDS011;42934;54.294;18.598;2023-09-19T14:50:21;3.40;;;1.60;;
57047;SDS011;42934;54.294;18.598;2023-09-19T14:52:51;4.68;;;1.58;;
57047;SDS011;42934;54.294;18.598;2023-09-19T14:55:21;5.40;;;1.63;;
57047;SDS011;42934;54.294;18.598;2023-09-19T14:57:51;3.72;;;1.67;;
57047;SDS011;42934;54.294;18.598;2023-09-19T15:00:23;5.82;;;1.70;;
57047;SDS011;42934;54.294;18.598;2023-09-19T15:02:54;3.10;;;1.70;;
57047;SDS011;42934;54.294;18.598;2023-09-19T15:05:24;4.10;;;1.80;;
57047;SDS011;42934;54.294;18.598;2023-09-19T15:07:53;5.32;;;1.80;;
57047;SDS011;42934;54.294;18.598;2023-09-19T15:10:23;6.65;;;1.77;;
57047;SDS011;42934;54.294;18.598;2023-09-19T15:12:54;5.38;;;1.77;;
57047;SDS011;42934;54.294;18.598;2023-09-19T15:15:23;8.95;;;2.40;;
57047;SDS011;42934;54.294;18.598;2023-09-19T15:17:52;10.40;;;1.88;;
57047;SDS011;42934;54.294;18.598;2023-09-19T15:20:22;6.78;;;1.92;;
57047;SDS011;42934;54.294;18.598;2023-09-19T15:22:51;4.80;;;1.83;;
57047;SDS011;42934;54.294;18.598;2023-09-19T15:25:21;5.30;;;2.00;;
57047;SDS011;42934;54.294;18.598;2023-09-19T15:27:50;4.38;;;1.90;;
57047;SDS011;42934;54.294;18.598;2023-09-19T15:30:20;6.53;;;1.80;;
57047;SDS011;42934;54.294;18.598;2023-09-19T15:32:50;5.43;;;1.90;;
57047;SDS011;42934;54.294;18.598;2023-09-19T15:35:19;7.03;;;1.97;;